createdAt,value
2022-11-20T00:00:28.384Z,70.83
2022-11-20T00:05:51.351Z,66.15
2022-11-20T00:10:54.296Z,49.65
2022-11-20T00:16:02.089Z,47.23
2022-11-20T00:21:12.184Z,48.52
2022-11-20T00:26:17.473Z,49.85
2022-11-20T00:31:21.084Z,51.09
2022-11-20T00:36:27.104Z,52.40
2022-11-20T00:41:30.947Z,53.61
2022-11-20T00:46:34.139Z,54.58
2022-11-20T00:51:37.119Z,55.38
2022-11-20T00:56:41.132Z,56.40
2022-11-20T01:01:44.344Z,57.06
2022-11-20T01:06:48.059Z,57.64
2022-11-20T01:11:51.343Z,58.16
2022-11-20T01:16:54.373Z,58.47
2022-11-20T01:21:57.345Z,59.44
2022-11-20T01:27:00.341Z,59.31
2022-11-20T01:32:03.464Z,59.48
2022-11-20T01:37:06.390Z,60.13
2022-11-20T01:42:27.727Z,60.44
2022-11-20T01:47:42.644Z,60.70
2022-11-20T01:53:03.127Z,60.37
2022-11-20T01:58:07.074Z,60.46
2022-11-20T02:03:14.600Z,60.79
2022-11-20T02:08:19.172Z,60.79
2022-11-20T02:13:41.115Z,60.81
2022-11-20T02:18:45.339Z,60.89
2022-11-20T02:23:54.300Z,60.89
2022-11-20T02:28:58.561Z,61.05
2022-11-20T02:34:01.498Z,61.31
2022-11-20T02:39:05.220Z,61.21
2022-11-20T02:44:08.221Z,61.25
2022-11-20T02:49:11.179Z,61.21
2022-11-20T02:54:14.275Z,61.00
2022-11-20T02:59:17.323Z,60.91
2022-11-20T03:04:20.958Z,60.99
2022-11-20T03:09:24.122Z,61.25
2022-11-20T03:14:27.168Z,61.48
2022-11-20T03:19:30.180Z,61.59
2022-11-20T03:24:33.122Z,61.60
2022-11-20T03:29:36.701Z,61.60
2022-11-20T03:34:39.780Z,61.73
2022-11-20T03:39:42.747Z,61.82
2022-11-20T03:44:45.663Z,61.69
2022-11-20T03:49:48.674Z,61.75
2022-11-20T03:54:51.653Z,61.78
2022-11-20T03:59:54.588Z,61.74
2022-11-20T04:05:02.328Z,61.78
2022-11-20T04:10:05.974Z,61.58
2022-11-20T04:15:09.565Z,61.66
2022-11-20T04:20:12.871Z,61.55
2022-11-20T04:25:16.233Z,61.64
2022-11-20T04:30:19.179Z,61.75
2022-11-20T04:35:22.140Z,61.86
2022-11-20T04:40:25.049Z,61.96
2022-11-20T04:45:27.952Z,61.81
2022-11-20T04:50:30.886Z,61.85
2022-11-20T04:55:33.831Z,61.82
2022-11-20T05:00:36.997Z,61.63
2022-11-20T05:05:40.116Z,61.72
2022-11-20T05:10:43.068Z,61.73
2022-11-20T05:15:46.041Z,61.54
2022-11-20T05:20:56.365Z,61.51
2022-11-20T05:25:59.895Z,61.70
2022-11-20T05:31:12.537Z,61.73
2022-11-20T05:36:16.325Z,61.76
2022-11-20T05:41:20.928Z,61.83
2022-11-20T05:46:28.208Z,61.77
2022-11-20T05:51:32.053Z,61.81
2022-11-20T05:56:35.024Z,61.77
2022-11-20T06:01:38.028Z,61.88
2022-11-20T06:06:41.187Z,61.94
2022-11-20T06:11:44.158Z,61.94
2022-11-20T06:16:47.123Z,61.94
2022-11-20T06:21:50.820Z,62.05
2022-11-20T06:26:53.837Z,62.08
2022-11-20T06:31:56.834Z,62.09
2022-11-20T06:36:59.775Z,62.13
2022-11-20T06:42:02.734Z,62.18
2022-11-20T06:47:05.869Z,62.16
2022-11-20T06:52:08.895Z,62.16
2022-11-20T06:57:11.852Z,62.17
2022-11-20T07:02:14.739Z,62.12
2022-11-20T07:07:17.922Z,62.14
2022-11-20T07:12:21.712Z,62.24
2022-11-20T07:17:24.614Z,62.25
2022-11-20T07:22:27.716Z,62.32
2022-11-20T07:27:31.257Z,62.31
2022-11-20T07:32:34.201Z,62.35
2022-11-20T07:37:37.471Z,62.37
2022-11-20T07:42:40.432Z,70.26
2022-11-20T07:47:43.524Z,67.48
2022-11-20T07:52:46.766Z,52.11
2022-11-20T07:57:56.090Z,48.57
2022-11-20T08:02:59.094Z,48.63
2022-11-20T08:08:02.328Z,49.91
2022-11-20T08:13:23.791Z,51.06
2022-11-20T08:18:31.569Z,52.06
2022-11-20T08:23:35.351Z,53.53
2022-11-20T08:28:38.250Z,55.15
2022-11-20T08:33:41.261Z,56.40
2022-11-20T08:38:49.160Z,57.04
2022-11-20T08:43:57.976Z,57.86
2022-11-20T08:49:01.119Z,58.70
2022-11-20T08:54:05.754Z,59.15
2022-11-20T08:59:43.939Z,59.88
2022-11-20T09:04:31.722Z,65.64
2022-11-20T09:09:34.901Z,67.98
2022-11-20T09:14:37.840Z,51.28
2022-11-20T09:19:41.556Z,47.81
2022-11-20T09:24:44.501Z,49.10
2022-11-20T09:29:47.475Z,49.81
2022-11-20T09:34:50.414Z,51.28
2022-11-20T09:39:53.381Z,52.66
2022-11-20T09:45:24.862Z,54.94
2022-11-20T09:50:51.017Z,55.98
2022-11-20T09:55:54.098Z,57.06
2022-11-20T10:01:04.940Z,56.48
2022-11-20T10:06:14.907Z,58.03
2022-11-20T10:11:27.644Z,58.93
2022-11-20T10:17:04.533Z,59.49
2022-11-20T10:22:32.132Z,60.99
2022-11-20T10:28:13.656Z,60.60
2022-11-20T10:33:24.436Z,60.46
2022-11-20T10:38:44.091Z,61.00
2022-11-20T10:43:50.070Z,61.85
2022-11-20T10:48:53.086Z,62.15
2022-11-20T10:54:11.198Z,71.02
2022-11-20T10:59:27.785Z,56.88
2022-11-20T11:04:33.564Z,47.75
2022-11-20T11:09:43.771Z,48.76
2022-11-20T11:14:52.856Z,50.07
2022-11-20T11:20:12.470Z,51.35
2022-11-20T11:25:34.834Z,53.24
2022-11-20T11:30:50.874Z,55.40
2022-11-20T11:36:02.770Z,55.12
2022-11-20T11:41:08.781Z,55.69
2022-11-20T11:46:36.203Z,56.53
2022-11-20T11:51:51.207Z,56.76
2022-11-20T11:56:55.071Z,57.38
2022-11-20T12:02:04.151Z,58.01
2022-11-20T12:07:48.677Z,58.06
2022-11-20T12:12:48.953Z,58.78
2022-11-20T12:17:52.038Z,59.24
2022-11-20T12:23:24.071Z,59.34
2022-11-20T12:28:45.112Z,59.24
2022-11-20T12:33:55.470Z,59.24
2022-11-20T12:39:35.555Z,59.37
2022-11-20T12:45:12.263Z,59.66
2022-11-20T12:51:08.074Z,60.11
2022-11-20T12:56:27.073Z,60.33
2022-11-20T13:01:48.757Z,60.51
2022-11-20T13:06:52.154Z,61.14
2022-11-20T13:12:10.094Z,73.76
2022-11-20T13:17:23.750Z,62.87
2022-11-20T13:22:43.749Z,48.68
2022-11-20T13:27:50.195Z,48.90
2022-11-20T13:33:08.068Z,50.16
2022-11-20T13:38:13.670Z,51.07
2022-11-20T13:43:38.025Z,52.52
2022-11-20T13:48:44.552Z,53.32
2022-11-20T13:53:58.443Z,55.45
2022-11-20T13:59:29.695Z,58.71
2022-11-20T14:04:40.081Z,57.23
2022-11-20T14:09:59.432Z,57.39
2022-11-20T14:15:02.785Z,57.86
2022-11-20T14:20:13.700Z,58.26
2022-11-20T14:25:16.700Z,58.46
2022-11-20T14:30:25.909Z,58.87
2022-11-20T14:35:31.104Z,59.11
2022-11-20T14:40:36.922Z,59.57
2022-11-20T14:45:40.064Z,60.14
2022-11-20T14:50:43.415Z,60.98
2022-11-20T14:55:59.004Z,60.87
2022-11-20T15:01:04.530Z,61.07
2022-11-20T15:06:11.505Z,60.47
2022-11-20T15:11:26.851Z,61.33
2022-11-20T15:16:30.149Z,62.11
2022-11-20T15:21:33.161Z,72.99
2022-11-20T15:26:38.232Z,63.47
2022-11-20T15:31:42.615Z,49.35
2022-11-20T15:36:45.571Z,50.02
2022-11-20T15:41:48.521Z,51.22
2022-11-20T15:46:51.714Z,52.51
2022-11-20T15:51:55.057Z,53.63
2022-11-20T15:56:58.237Z,54.72
2022-11-20T16:02:01.183Z,55.86
2022-11-20T16:07:04.352Z,56.87
2022-11-20T16:12:30.862Z,57.87
2022-11-20T16:17:43.571Z,58.50
2022-11-20T16:22:46.544Z,59.22
2022-11-20T16:27:49.550Z,59.91
2022-11-20T16:32:52.540Z,69.47
2022-11-20T16:37:56.766Z,65.10
2022-11-20T16:43:11.634Z,49.54
2022-11-20T16:48:16.814Z,48.38
2022-11-20T16:53:22.541Z,50.02
2022-11-20T16:58:25.492Z,51.25
2022-11-20T17:03:28.386Z,52.81
2022-11-20T17:08:31.348Z,54.06
2022-11-20T17:13:39.643Z,55.36
2022-11-20T17:18:44.300Z,56.62
2022-11-20T17:23:47.472Z,57.79
2022-11-20T17:29:02.345Z,58.44
2022-11-20T17:34:11.189Z,59.54
2022-11-20T17:39:15.928Z,61.42
2022-11-20T17:44:18.882Z,69.14
2022-11-20T17:49:24.087Z,63.54
2022-11-20T17:54:27.238Z,49.88
2022-11-20T17:59:30.210Z,49.30
2022-11-20T18:04:33.206Z,50.59
2022-11-20T18:09:36.126Z,51.98
2022-11-20T18:14:39.178Z,53.29
2022-11-20T18:20:00.960Z,54.75
2022-11-20T18:25:09.179Z,55.84
2022-11-20T18:30:13.140Z,57.25
2022-11-20T18:35:16.047Z,58.21
2022-11-20T18:40:18.970Z,58.91
2022-11-20T18:45:22.003Z,59.46
2022-11-20T18:50:25.012Z,60.08
2022-11-20T18:55:28.021Z,61.43
2022-11-20T19:00:31.072Z,71.23
2022-11-20T19:05:36.683Z,62.60
2022-11-20T19:10:40.067Z,49.67
2022-11-20T19:15:43.028Z,49.27
2022-11-20T19:20:46.154Z,50.43
2022-11-20T19:25:49.361Z,52.13
2022-11-20T19:30:52.434Z,53.66
2022-11-20T19:35:55.335Z,54.73
2022-11-20T19:40:58.330Z,55.82
2022-11-20T19:46:02.387Z,56.70
2022-11-20T19:51:20.997Z,57.96
2022-11-20T19:56:24.663Z,58.64
2022-11-20T20:01:30.613Z,59.56
2022-11-20T20:06:36.473Z,61.30
2022-11-20T20:11:39.766Z,70.01
2022-11-20T20:16:42.969Z,64.18
2022-11-20T20:21:47.835Z,50.58
2022-11-20T20:26:54.275Z,50.43
2022-11-20T20:32:00.052Z,51.29
2022-11-20T20:37:05.280Z,52.67
2022-11-20T20:42:08.248Z,53.66
2022-11-20T20:47:11.289Z,54.86
2022-11-20T20:52:15.072Z,56.74
2022-11-20T20:57:18.118Z,58.00
2022-11-20T21:02:22.562Z,58.99
2022-11-20T21:07:26.566Z,59.85
2022-11-20T21:12:29.537Z,60.67
2022-11-20T21:17:32.559Z,61.41
2022-11-20T21:22:36.641Z,70.80
2022-11-20T21:27:39.787Z,65.75
2022-11-20T21:32:45.257Z,51.61
2022-11-20T21:37:48.342Z,49.95
2022-11-20T21:42:53.383Z,51.46
2022-11-20T21:47:56.326Z,52.17
2022-11-20T21:52:59.350Z,53.37
2022-11-20T21:58:02.601Z,54.98
2022-11-20T22:03:05.723Z,56.40
2022-11-20T22:08:09.365Z,57.88
2022-11-20T22:13:30.579Z,58.71
2022-11-20T22:18:33.562Z,59.64
2022-11-20T22:23:36.800Z,60.48
2022-11-20T22:28:40.611Z,61.25
2022-11-20T22:33:44.339Z,70.41
2022-11-20T22:38:47.660Z,63.93
2022-11-20T22:43:57.801Z,50.83
2022-11-20T22:49:03.450Z,49.45
2022-11-20T22:54:06.834Z,51.24
2022-11-20T22:59:09.914Z,52.33
2022-11-20T23:04:13.367Z,53.75
2022-11-20T23:09:17.580Z,55.02
2022-11-20T23:14:24.922Z,56.33
2022-11-20T23:19:30.483Z,57.51
2022-11-20T23:24:33.784Z,58.62
2022-11-20T23:29:36.680Z,59.49
2022-11-20T23:34:40.074Z,60.92
2022-11-20T23:39:43.092Z,69.51
2022-11-20T23:44:46.021Z,62.92
2022-11-20T23:49:48.914Z,50.39
2022-11-20T23:54:51.818Z,49.89
2022-11-20T23:59:54.774Z,51.44
